createdAt,value
2023-02-21T00:00:26.562Z,6.37
2023-02-21T00:03:20.154Z,5.13
2023-02-21T00:06:13.707Z,5.60
2023-02-21T00:09:07.348Z,3.93
2023-02-21T00:12:03.162Z,3.57
2023-02-21T00:14:57.313Z,3.73
2023-02-21T00:17:50.682Z,4.40
2023-02-21T00:20:44.397Z,7.80
2023-02-21T00:23:37.946Z,4.00
2023-02-21T00:26:37.468Z,6.40
2023-02-21T00:29:30.839Z,5.47
2023-02-21T00:32:24.207Z,4.47
2023-02-21T00:35:17.416Z,7.20
2023-02-21T00:38:10.852Z,4.70
2023-02-21T00:41:04.624Z,7.93
2023-02-21T00:43:58.608Z,4.10
2023-02-21T00:46:53.058Z,6.27
2023-02-21T00:49:46.257Z,6.50
2023-02-21T00:52:40.023Z,8.23
2023-02-21T00:55:33.273Z,4.00
2023-02-21T00:58:26.480Z,5.90
2023-02-21T01:01:19.802Z,9.53
2023-02-21T01:04:14.003Z,6.90
2023-02-21T01:07:10.029Z,6.17
2023-02-21T01:10:03.405Z,4.07
2023-02-21T01:12:56.730Z,8.13
2023-02-21T01:15:50.777Z,4.83
2023-02-21T01:18:44.555Z,3.70
2023-02-21T01:21:38.864Z,5.50
2023-02-21T01:24:34.454Z,7.10
2023-02-21T01:27:27.734Z,5.70
2023-02-21T01:30:21.316Z,4.60
2023-02-21T01:33:15.128Z,4.03
2023-02-21T01:36:09.085Z,3.70
2023-02-21T01:39:02.717Z,4.63
2023-02-21T01:41:57.157Z,4.63
2023-02-21T01:45:05.742Z,3.37
2023-02-21T01:47:59.594Z,4.20
2023-02-21T01:50:52.880Z,3.07
2023-02-21T01:53:46.867Z,3.60
2023-02-21T01:56:40.674Z,3.00
2023-02-21T01:59:37.028Z,7.57
2023-02-21T02:02:47.960Z,2.57
2023-02-21T02:05:42.426Z,2.73
2023-02-21T02:08:40.404Z,2.97
2023-02-21T02:12:00.233Z,3.40
2023-02-21T02:15:12.369Z,4.10
2023-02-21T02:18:02.246Z,3.70
2023-02-21T02:21:01.168Z,3.97
2023-02-21T02:24:10.084Z,3.10
2023-02-21T02:27:06.703Z,2.80
2023-02-21T02:30:19.101Z,3.50
2023-02-21T02:33:31.411Z,3.40
2023-02-21T02:36:15.365Z,2.17
2023-02-21T02:39:11.130Z,3.70
2023-02-21T02:42:17.391Z,5.13
2023-02-21T02:45:00.680Z,2.87
2023-02-21T02:47:38.845Z,3.00
2023-02-21T02:50:14.064Z,3.37
2023-02-21T02:52:54.395Z,2.97
2023-02-21T02:55:37.488Z,5.10
2023-02-21T02:58:12.893Z,5.67
2023-02-21T03:01:33.742Z,5.47
2023-02-21T03:04:14.631Z,3.20
2023-02-21T03:06:57.376Z,3.33
2023-02-21T03:10:33.667Z,4.30
2023-02-21T03:13:23.637Z,4.93
2023-02-21T03:16:30.058Z,2.90
2023-02-21T03:19:13.010Z,3.13
2023-02-21T03:22:08.857Z,4.40
2023-02-21T03:24:49.641Z,3.57
2023-02-21T03:27:26.372Z,4.87
2023-02-21T03:30:14.454Z,5.97
2023-02-21T03:32:53.123Z,3.97
2023-02-21T03:35:30.507Z,5.17
2023-02-21T03:38:06.822Z,3.70
2023-02-21T03:40:41.798Z,3.47
2023-02-21T03:43:16.683Z,4.40
2023-02-21T03:46:03.462Z,5.20
2023-02-21T03:48:39.416Z,6.60
2023-02-21T03:51:23.867Z,7.07
2023-02-21T03:53:58.938Z,4.77
2023-02-21T03:56:42.572Z,8.90
2023-02-21T03:59:37.526Z,5.00
2023-02-21T04:02:13.509Z,5.57
2023-02-21T04:04:48.796Z,4.10
2023-02-21T04:07:26.869Z,5.97
2023-02-21T04:10:01.968Z,7.67
2023-02-21T04:12:51.867Z,5.60
2023-02-21T04:15:27.133Z,5.30
2023-02-21T04:18:02.633Z,5.93
2023-02-21T04:20:37.898Z,5.50
2023-02-21T04:23:22.614Z,5.70
2023-02-21T04:25:58.209Z,5.57
2023-02-21T04:28:40.649Z,6.97
2023-02-21T04:31:17.990Z,4.73
2023-02-21T04:34:05.812Z,4.47
2023-02-21T04:36:46.173Z,7.20
2023-02-21T04:39:21.544Z,4.60
2023-02-21T04:41:57.993Z,6.17
2023-02-21T04:44:32.979Z,5.63
2023-02-21T04:47:07.951Z,5.90
2023-02-21T04:49:42.958Z,7.90
2023-02-21T04:52:22.086Z,6.03
2023-02-21T04:54:56.960Z,4.30
2023-02-21T04:57:31.842Z,8.27
2023-02-21T05:00:08.166Z,5.20
2023-02-21T05:02:45.116Z,5.17
2023-02-21T05:05:20.017Z,4.60
2023-02-21T05:07:55.028Z,5.03
2023-02-21T05:10:44.699Z,3.97
2023-02-21T05:13:20.296Z,4.97
2023-02-21T05:15:55.223Z,6.60
2023-02-21T05:18:30.097Z,4.67
2023-02-21T05:21:07.165Z,5.80
2023-02-21T05:23:43.025Z,10.97
2023-02-21T05:26:17.947Z,10.70
2023-02-21T05:28:54.488Z,13.57
2023-02-21T05:31:29.879Z,5.57
2023-02-21T05:34:04.772Z,6.70
2023-02-21T05:36:41.075Z,4.40
2023-02-21T05:39:16.218Z,4.27
2023-02-21T05:41:51.596Z,6.30
2023-02-21T05:44:26.487Z,4.70
2023-02-21T05:47:02.461Z,4.80
2023-02-21T05:49:37.531Z,4.97
2023-02-21T05:52:15.048Z,6.67
2023-02-21T05:54:49.911Z,4.57
2023-02-21T05:57:24.844Z,7.70
2023-02-21T05:59:59.713Z,7.90
2023-02-21T06:02:34.706Z,5.27
2023-02-21T06:05:10.892Z,7.87
2023-02-21T06:07:46.546Z,6.13
2023-02-21T06:10:21.586Z,6.27
2023-02-21T06:12:56.694Z,7.40
2023-02-21T06:15:31.766Z,5.97
2023-02-21T06:18:06.742Z,7.43
2023-02-21T06:20:41.703Z,4.60
2023-02-21T06:23:16.681Z,6.10
2023-02-21T06:25:51.681Z,7.17
2023-02-21T06:28:30.709Z,6.27
2023-02-21T06:31:06.086Z,9.20
2023-02-21T06:33:41.402Z,6.43
2023-02-21T06:36:23.590Z,6.10
2023-02-21T06:38:58.861Z,5.43
2023-02-21T06:41:33.851Z,8.50
2023-02-21T06:44:08.895Z,8.50
2023-02-21T06:46:44.151Z,8.73
2023-02-21T06:49:19.653Z,7.50
2023-02-21T06:51:54.818Z,11.00
2023-02-21T06:54:30.156Z,10.13
2023-02-21T06:57:05.798Z,10.80
2023-02-21T06:59:41.409Z,7.10
2023-02-21T07:02:20.606Z,7.20
2023-02-21T07:05:05.054Z,8.77
2023-02-21T07:07:45.323Z,10.50
2023-02-21T07:10:25.451Z,7.27
2023-02-21T07:13:02.323Z,21.40
2023-02-21T07:15:43.381Z,7.83
2023-02-21T07:18:19.847Z,7.00
2023-02-21T07:20:55.571Z,7.30
2023-02-21T07:23:33.647Z,8.17
2023-02-21T07:26:13.524Z,6.50
2023-02-21T07:28:50.764Z,9.33
2023-02-21T07:31:26.966Z,10.77
2023-02-21T07:34:01.983Z,6.67
2023-02-21T07:36:40.230Z,9.50
2023-02-21T07:39:15.544Z,9.13
2023-02-21T07:41:50.480Z,9.70
2023-02-21T07:44:31.530Z,8.00
2023-02-21T07:47:06.571Z,7.43
2023-02-21T07:49:41.673Z,7.97
2023-02-21T07:52:16.692Z,9.20
2023-02-21T07:54:51.794Z,6.73
2023-02-21T07:57:27.109Z,6.97
2023-02-21T08:00:02.112Z,7.07
2023-02-21T08:02:37.078Z,5.40
2023-02-21T08:05:11.965Z,8.13
2023-02-21T08:07:47.521Z,5.47
2023-02-21T08:10:26.202Z,11.80
2023-02-21T08:13:02.840Z,5.07
2023-02-21T08:15:40.387Z,5.80
2023-02-21T08:18:24.092Z,5.73
2023-02-21T08:20:59.130Z,5.50
2023-02-21T08:23:35.013Z,4.47
2023-02-21T08:26:10.776Z,4.57
2023-02-21T08:28:46.334Z,4.83
2023-02-21T08:31:24.461Z,5.47
2023-02-21T08:33:59.765Z,4.00
2023-02-21T08:36:38.190Z,4.20
2023-02-21T08:39:15.144Z,3.47
2023-02-21T08:41:53.669Z,4.90
2023-02-21T08:44:29.229Z,7.10
2023-02-21T08:47:04.222Z,8.70
2023-02-21T08:49:41.101Z,6.80
2023-02-21T08:52:18.333Z,7.50
2023-02-21T08:54:53.363Z,4.23
2023-02-21T08:57:28.530Z,6.50
2023-02-21T09:00:09.186Z,6.10
2023-02-21T09:02:44.553Z,5.00
2023-02-21T09:05:24.686Z,6.50
2023-02-21T09:08:02.046Z,5.27
2023-02-21T09:10:48.692Z,5.30
2023-02-21T09:13:41.799Z,7.07
2023-02-21T09:16:20.201Z,6.10
2023-02-21T09:19:01.508Z,6.30
2023-02-21T09:21:36.634Z,5.93
2023-02-21T09:24:12.066Z,7.43
2023-02-21T09:26:47.236Z,5.73
2023-02-21T09:29:22.873Z,4.57
2023-02-21T09:31:58.476Z,5.03
2023-02-21T09:34:33.872Z,8.93
2023-02-21T09:37:14.337Z,7.30
2023-02-21T09:39:57.116Z,6.77
2023-02-21T09:42:34.861Z,6.20
2023-02-21T09:45:20.373Z,5.80
2023-02-21T09:48:00.340Z,6.13
2023-02-21T09:50:52.858Z,5.20
2023-02-21T09:53:36.370Z,7.13
2023-02-21T09:56:36.788Z,4.27
2023-02-21T09:59:16.381Z,5.27
2023-02-21T10:02:14.823Z,4.43
2023-02-21T10:05:45.042Z,5.73
2023-02-21T10:08:53.725Z,6.57
2023-02-21T10:12:09.001Z,4.77
2023-02-21T10:15:10.934Z,5.83
2023-02-21T10:17:55.191Z,5.23
2023-02-21T10:20:57.958Z,8.90
2023-02-21T10:23:46.871Z,4.30
2023-02-21T10:26:30.490Z,4.90
2023-02-21T10:29:32.813Z,6.43
2023-02-21T10:32:12.570Z,6.20
2023-02-21T10:34:49.438Z,4.10
2023-02-21T10:37:44.221Z,3.73
2023-02-21T10:40:52.272Z,5.07
2023-02-21T10:43:48.941Z,6.20
2023-02-21T10:46:50.215Z,3.20
2023-02-21T10:49:35.025Z,2.97
2023-02-21T10:52:18.359Z,3.47
2023-02-21T10:55:32.913Z,2.43
2023-02-21T10:58:19.171Z,2.70
2023-02-21T11:00:54.467Z,3.40
2023-02-21T11:03:30.977Z,4.73
2023-02-21T11:06:06.441Z,3.60
2023-02-21T11:08:44.579Z,3.30
2023-02-21T11:11:37.291Z,3.47
2023-02-21T11:14:19.176Z,2.90
2023-02-21T11:17:19.135Z,6.33
2023-02-21T11:20:20.868Z,3.30
2023-02-21T11:22:56.166Z,3.50
2023-02-21T11:25:39.367Z,3.20
2023-02-21T11:28:14.890Z,2.37
2023-02-21T11:31:02.278Z,4.57
2023-02-21T11:33:44.318Z,3.80
2023-02-21T11:36:30.007Z,1.90
2023-02-21T11:39:16.367Z,1.83
2023-02-21T11:41:53.361Z,1.97
2023-02-21T11:44:37.767Z,2.70
2023-02-21T11:47:25.229Z,2.37
2023-02-21T11:50:28.565Z,3.93
2023-02-21T11:53:22.550Z,1.57
2023-02-21T11:56:54.449Z,1.70
2023-02-21T12:00:16.831Z,1.50
2023-02-21T12:03:12.400Z,1.50
2023-02-21T12:06:11.039Z,3.80
2023-02-21T12:08:56.749Z,2.20
2023-02-21T12:11:50.976Z,2.43
2023-02-21T12:14:57.197Z,2.23
2023-02-21T12:18:31.301Z,1.50
2023-02-21T12:21:52.264Z,1.53
2023-02-21T12:24:56.077Z,2.20
2023-02-21T12:28:06.194Z,1.60
2023-02-21T12:31:03.230Z,2.40
2023-02-21T12:34:16.022Z,3.00
2023-02-21T12:37:21.648Z,1.73
2023-02-21T12:40:28.740Z,4.03
2023-02-21T12:43:58.198Z,2.30
2023-02-21T12:46:42.885Z,2.13
2023-02-21T12:49:54.763Z,5.40
2023-02-21T12:52:38.673Z,1.40
2023-02-21T12:55:26.396Z,1.40
2023-02-21T12:58:22.330Z,3.47
2023-02-21T13:01:10.742Z,1.47
2023-02-21T13:04:36.248Z,2.20
2023-02-21T13:07:26.362Z,1.30
2023-02-21T13:10:16.494Z,3.60
2023-02-21T13:12:58.893Z,2.93
2023-02-21T13:15:35.110Z,1.60
2023-02-21T13:18:24.089Z,2.00
2023-02-21T13:21:32.528Z,1.10
2023-02-21T13:24:15.511Z,1.87
2023-02-21T13:27:28.246Z,1.37
2023-02-21T13:30:46.838Z,2.57
2023-02-21T13:33:46.187Z,2.77
2023-02-21T13:36:39.221Z,1.53
2023-02-21T13:39:36.454Z,1.17
2023-02-21T13:42:19.634Z,1.33
2023-02-21T13:45:22.401Z,2.00
2023-02-21T13:48:00.461Z,4.40
2023-02-21T13:50:38.558Z,1.10
2023-02-21T13:53:22.845Z,1.70
2023-02-21T13:56:06.675Z,2.07
2023-02-21T13:58:49.674Z,1.43
2023-02-21T14:01:30.720Z,1.90
2023-02-21T14:05:02.313Z,1.53
2023-02-21T14:07:49.550Z,1.53
2023-02-21T14:10:39.340Z,1.43
2023-02-21T14:13:36.346Z,1.20
2023-02-21T14:16:15.136Z,1.27
2023-02-21T14:18:59.702Z,1.70
2023-02-21T14:21:43.326Z,1.13
2023-02-21T14:24:28.194Z,0.97
2023-02-21T14:27:28.889Z,0.90
2023-02-21T14:30:13.163Z,1.70
2023-02-21T14:32:52.219Z,1.33
2023-02-21T14:35:34.549Z,1.73
2023-02-21T14:38:21.396Z,2.60
2023-02-21T14:41:38.784Z,0.90
2023-02-21T14:44:34.268Z,1.30
2023-02-21T14:47:35.057Z,3.20
2023-02-21T14:50:31.593Z,1.53
2023-02-21T14:53:31.861Z,0.90
2023-02-21T14:56:15.706Z,1.03
2023-02-21T14:59:33.504Z,0.90
2023-02-21T15:02:26.009Z,1.60
2023-02-21T15:05:14.656Z,1.57
2023-02-21T15:07:52.423Z,1.60
2023-02-21T15:10:31.072Z,2.07
2023-02-21T15:13:06.269Z,1.77
2023-02-21T15:15:42.994Z,1.40
2023-02-21T15:18:23.923Z,1.30
2023-02-21T15:21:26.275Z,1.20
2023-02-21T15:24:15.317Z,2.40
2023-02-21T15:27:08.904Z,1.40
2023-02-21T15:29:44.055Z,1.13
2023-02-21T15:32:19.101Z,1.20
2023-02-21T15:34:54.484Z,1.80
2023-02-21T15:37:32.236Z,1.57
2023-02-21T15:40:20.627Z,1.30
2023-02-21T15:42:55.733Z,1.30
2023-02-21T15:45:44.225Z,2.00
2023-02-21T15:48:19.301Z,1.30
2023-02-21T15:50:54.466Z,1.20
2023-02-21T15:53:29.419Z,2.73
2023-02-21T15:56:25.320Z,1.63
2023-02-21T15:59:26.081Z,1.00
2023-02-21T16:02:28.476Z,1.90
2023-02-21T16:05:05.333Z,1.30
2023-02-21T16:07:41.076Z,2.53
2023-02-21T16:10:16.091Z,1.40
2023-02-21T16:13:01.154Z,1.30
2023-02-21T16:15:37.709Z,1.80
2023-02-21T16:18:18.666Z,1.63
2023-02-21T16:21:07.804Z,2.40
2023-02-21T16:23:44.903Z,1.53
2023-02-21T16:26:28.317Z,1.83
2023-02-21T16:29:03.913Z,4.10
2023-02-21T16:31:39.930Z,4.23
2023-02-21T16:34:15.103Z,2.20
2023-02-21T16:36:54.826Z,2.03
2023-02-21T16:39:30.818Z,2.20
2023-02-21T16:42:05.848Z,3.47
2023-02-21T16:44:48.613Z,2.23
2023-02-21T16:47:24.968Z,1.70
2023-02-21T16:50:00.487Z,1.90
2023-02-21T16:52:35.582Z,1.80
2023-02-21T16:55:16.753Z,4.60
2023-02-21T16:57:56.397Z,3.60
2023-02-21T17:00:32.521Z,3.50
2023-02-21T17:03:07.463Z,3.40
2023-02-21T17:05:42.395Z,3.60
2023-02-21T17:08:17.487Z,5.90
2023-02-21T17:10:52.441Z,3.90
2023-02-21T17:13:27.820Z,3.37
2023-02-21T17:16:02.988Z,6.03
2023-02-21T17:18:38.024Z,3.00
2023-02-21T17:21:13.105Z,3.60
2023-02-21T17:23:48.064Z,3.70
2023-02-21T17:26:23.058Z,2.80
2023-02-21T17:28:57.950Z,3.17
2023-02-21T17:31:32.841Z,4.33
2023-02-21T17:34:07.752Z,4.87
2023-02-21T17:36:42.639Z,4.33
2023-02-21T17:39:19.678Z,2.70
2023-02-21T17:41:54.701Z,3.80
2023-02-21T17:44:29.600Z,4.40
2023-02-21T17:47:07.470Z,6.77
2023-02-21T17:49:42.460Z,11.27
2023-02-21T17:52:17.874Z,6.47
2023-02-21T17:54:53.962Z,5.90
2023-02-21T17:57:30.117Z,7.73
2023-02-21T18:00:11.005Z,4.50
2023-02-21T18:02:48.761Z,4.50
2023-02-21T18:05:24.197Z,4.87
2023-02-21T18:07:59.272Z,4.33
2023-02-21T18:10:34.182Z,7.27
2023-02-21T18:13:09.059Z,5.63
2023-02-21T18:15:44.248Z,6.43
2023-02-21T18:18:19.135Z,5.23
2023-02-21T18:20:54.165Z,5.30
2023-02-21T18:23:30.673Z,5.43
2023-02-21T18:26:05.737Z,4.80
2023-02-21T18:28:40.821Z,4.63
2023-02-21T18:31:18.445Z,5.20
2023-02-21T18:33:53.553Z,6.40
2023-02-21T18:36:28.623Z,5.80
2023-02-21T18:39:03.632Z,4.00
2023-02-21T18:41:38.498Z,6.63
2023-02-21T18:44:13.554Z,5.90
2023-02-21T18:46:58.353Z,6.40
2023-02-21T18:49:38.521Z,7.20
2023-02-21T18:52:15.044Z,5.10
2023-02-21T18:54:50.853Z,5.50
2023-02-21T18:57:25.864Z,8.47
2023-02-21T19:00:00.762Z,6.50
2023-02-21T19:02:37.387Z,8.23
2023-02-21T19:05:18.573Z,6.73
2023-02-21T19:07:54.168Z,9.40
2023-02-21T19:10:30.647Z,5.93
2023-02-21T19:13:05.569Z,6.37
2023-02-21T19:15:40.440Z,10.90
2023-02-21T19:18:15.430Z,7.17
2023-02-21T19:20:50.377Z,9.30
2023-02-21T19:23:27.361Z,9.67
2023-02-21T19:26:02.263Z,9.53
2023-02-21T19:28:40.644Z,7.17
2023-02-21T19:31:19.959Z,9.17
2023-02-21T19:33:55.132Z,11.20
2023-02-21T19:36:30.069Z,7.07
2023-02-21T19:39:06.944Z,10.47
2023-02-21T19:41:41.828Z,7.93
2023-02-21T19:44:16.697Z,10.23
2023-02-21T19:46:51.577Z,9.50
2023-02-21T19:49:26.542Z,8.37
2023-02-21T19:52:01.410Z,8.03
2023-02-21T19:54:36.306Z,10.10
2023-02-21T19:57:11.266Z,10.27
2023-02-21T19:59:47.524Z,13.83
2023-02-21T20:02:22.995Z,10.20
2023-02-21T20:04:58.312Z,12.17
2023-02-21T20:07:33.332Z,11.20
2023-02-21T20:10:10.825Z,11.97
2023-02-21T20:12:45.809Z,12.27
2023-02-21T20:15:21.145Z,11.83
2023-02-21T20:17:56.079Z,12.40
2023-02-21T20:20:31.521Z,10.87
2023-02-21T20:23:08.151Z,9.70
2023-02-21T20:25:43.126Z,14.10
2023-02-21T20:28:19.963Z,10.93
2023-02-21T20:30:55.015Z,8.83
2023-02-21T20:33:29.962Z,10.20
2023-02-21T20:36:05.933Z,10.67
2023-02-21T20:38:40.784Z,11.03
2023-02-21T20:41:15.879Z,9.53
2023-02-21T20:43:50.955Z,22.93
2023-02-21T20:46:26.970Z,11.70
2023-02-21T20:49:03.286Z,12.57
2023-02-21T20:51:39.111Z,13.27
2023-02-21T20:54:21.154Z,10.80
2023-02-21T20:56:57.982Z,9.47
2023-02-21T20:59:37.068Z,10.47
2023-02-21T21:02:12.737Z,9.87
2023-02-21T21:04:48.160Z,10.03
2023-02-21T21:07:25.117Z,7.77
2023-02-21T21:10:00.193Z,7.67
2023-02-21T21:12:35.999Z,10.40
2023-02-21T21:15:14.308Z,9.00
2023-02-21T21:17:49.292Z,8.97
2023-02-21T21:20:27.039Z,6.97
2023-02-21T21:23:02.040Z,6.73
2023-02-21T21:25:37.484Z,9.77
2023-02-21T21:28:13.183Z,9.73
2023-02-21T21:30:48.339Z,12.47
2023-02-21T21:33:23.247Z,13.77
2023-02-21T21:36:01.439Z,11.00
2023-02-21T21:38:40.724Z,10.70
2023-02-21T21:41:15.868Z,13.87
2023-02-21T21:43:51.081Z,11.73
2023-02-21T21:46:25.976Z,11.30
2023-02-21T21:49:01.009Z,9.50
2023-02-21T21:51:35.921Z,9.23
2023-02-21T21:54:16.424Z,8.80
2023-02-21T21:56:55.276Z,11.87
2023-02-21T21:59:32.368Z,12.20
2023-02-21T22:02:10.281Z,9.30
2023-02-21T22:04:45.614Z,9.50
2023-02-21T22:07:20.659Z,9.97
2023-02-21T22:09:55.525Z,11.37
2023-02-21T22:12:30.392Z,13.30
2023-02-21T22:15:06.604Z,9.83
2023-02-21T22:17:41.516Z,10.47
2023-02-21T22:20:19.788Z,7.53
2023-02-21T22:22:59.396Z,8.27
2023-02-21T22:25:36.995Z,9.47
2023-02-21T22:28:13.336Z,11.83
2023-02-21T22:30:48.335Z,10.10
2023-02-21T22:33:23.235Z,8.10
2023-02-21T22:35:58.203Z,8.97
2023-02-21T22:38:33.740Z,6.07
2023-02-21T22:41:17.277Z,8.90
2023-02-21T22:43:55.042Z,10.57
2023-02-21T22:46:47.065Z,9.50
2023-02-21T22:49:22.020Z,10.20
2023-02-21T22:51:57.634Z,9.97
2023-02-21T22:54:32.784Z,10.83
2023-02-21T22:57:07.730Z,9.37
2023-02-21T22:59:43.757Z,12.33
2023-02-21T23:02:18.689Z,8.10
2023-02-21T23:04:53.577Z,10.73
2023-02-21T23:07:28.772Z,7.57
2023-02-21T23:10:03.887Z,9.93
2023-02-21T23:12:38.750Z,8.33
2023-02-21T23:15:15.807Z,10.23
2023-02-21T23:17:51.639Z,10.93
2023-02-21T23:20:29.656Z,7.07
2023-02-21T23:23:05.202Z,8.23
2023-02-21T23:25:40.598Z,11.07
2023-02-21T23:28:16.409Z,10.60
2023-02-21T23:30:51.356Z,6.77
2023-02-21T23:33:33.829Z,14.30
2023-02-21T23:36:08.878Z,9.27
2023-02-21T23:38:43.857Z,10.60
2023-02-21T23:41:19.115Z,8.03
2023-02-21T23:43:53.979Z,8.53
2023-02-21T23:46:29.615Z,6.37
2023-02-21T23:49:04.503Z,6.33
2023-02-21T23:51:42.372Z,9.07
2023-02-21T23:54:18.033Z,9.03
2023-02-21T23:56:52.962Z,9.63
2023-02-21T23:59:28.506Z,8.03
